sensor_id;sensor_type;location;lat;lon;timestamp;temperature;humidity
12276;DHT22;6200;48.144;11.424;2022-10-17T00:00:54;12.70;99.90
12276;DHT22;6200;48.144;11.424;2022-10-17T00:03:20;12.70;99.90
12276;DHT22;6200;48.144;11.424;2022-10-17T00:05:47;12.60;99.90
12276;DHT22;6200;48.144;11.424;2022-10-17T00:08:15;12.60;99.90
12276;DHT22;6200;48.144;11.424;2022-10-17T00:10:41;12.50;99.90
12276;DHT22;6200;48.144;11.424;2022-10-17T00:13:08;12.50;99.90
12276;DHT22;6200;48.144;11.424;2022-10-17T00:15:34;12.50;99.90
12276;DHT22;6200;48.144;11.424;2022-10-17T00:18:00;12.50;99.90
12276;DHT22;6200;48.144;11.424;2022-10-17T00:20:26;12.50;99.90
12276;DHT22;6200;48.144;11.424;2022-10-17T00:22:51;12.50;99.90
12276;DHT22;6200;48.144;11.424;2022-10-17T00:25:17;12.50;99.90
12276;DHT22;6200;48.144;11.424;2022-10-17T00:27:43;12.50;99.90
12276;DHT22;6200;48.144;11.424;2022-10-17T00:30:11;12.50;99.90
12276;DHT22;6200;48.144;11.424;2022-10-17T00:32:37;12.50;99.90
12276;DHT22;6200;48.144;11.424;2022-10-17T00:35:03;12.50;99.90
12276;DHT22;6200;48.144;11.424;2022-10-17T00:37:30;12.50;99.90
12276;DHT22;6200;48.144;11.424;2022-10-17T00:39:56;12.40;99.90
12276;DHT22;6200;48.144;11.424;2022-10-17T00:42:21;12.40;99.90
12276;DHT22;6200;48.144;11.424;2022-10-17T00:47:18;12.40;99.90
12276;DHT22;6200;48.144;11.424;2022-10-17T00:49:44;12.40;99.90
12276;DHT22;6200;48.144;11.424;2022-10-17T00:52:23;12.30;99.90
12276;DHT22;6200;48.144;11.424;2022-10-17T00:54:55;12.30;99.90
12276;DHT22;6200;48.144;11.424;2022-10-17T00:57:22;12.30;99.90
12276;DHT22;6200;48.144;11.424;2022-10-17T00:59:51;12.30;99.90
12276;DHT22;6200;48.144;11.424;2022-10-17T01:02:21;12.20;99.90
12276;DHT22;6200;48.144;11.424;2022-10-17T01:04:49;12.20;99.90
12276;DHT22;6200;48.144;11.424;2022-10-17T01:07:15;12.20;99.90
12276;DHT22;6200;48.144;11.424;2022-10-17T01:09:42;12.20;99.90
12276;DHT22;6200;48.144;11.424;2022-10-17T01:15:08;12.20;99.90
12276;DHT22;6200;48.144;11.424;2022-10-17T01:17:47;12.20;99.90
12276;DHT22;6200;48.144;11.424;2022-10-17T01:20:48;12.10;99.90
12276;DHT22;6200;48.144;11.424;2022-10-17T01:29:06;12.00;99.90
12276;DHT22;6200;48.144;11.424;2022-10-17T01:32:02;12.00;99.90
12276;DHT22;6200;48.144;11.424;2022-10-17T01:34:41;12.00;99.90
12276;DHT22;6200;48.144;11.424;2022-10-17T01:37:18;12.00;99.90
12276;DHT22;6200;48.144;11.424;2022-10-17T01:45:44;12.00;99.90
12276;DHT22;6200;48.144;11.424;2022-10-17T01:48:16;11.90;99.90
12276;DHT22;6200;48.144;11.424;2022-10-17T01:50:47;11.90;99.90
12276;DHT22;6200;48.144;11.424;2022-10-17T01:53:18;11.80;99.90
12276;DHT22;6200;48.144;11.424;2022-10-17T01:55:48;11.80;99.90
12276;DHT22;6200;48.144;11.424;2022-10-17T01:58:24;11.80;99.90
12276;DHT22;6200;48.144;11.424;2022-10-17T02:00:52;11.70;99.90
12276;DHT22;6200;48.144;11.424;2022-10-17T02:03:20;11.70;99.90
12276;DHT22;6200;48.144;11.424;2022-10-17T02:05:46;11.70;99.90
12276;DHT22;6200;48.144;11.424;2022-10-17T02:08:12;11.60;99.90
12276;DHT22;6200;48.144;11.424;2022-10-17T02:19:33;11.60;99.90
12276;DHT22;6200;48.144;11.424;2022-10-17T02:25:02;11.70;99.90
12276;DHT22;6200;48.144;11.424;2022-10-17T02:27:42;11.60;99.90
12276;DHT22;6200;48.144;11.424;2022-10-17T02:30:30;11.60;99.90
12276;DHT22;6200;48.144;11.424;2022-10-17T02:33:01;11.70;99.90
12276;DHT22;6200;48.144;11.424;2022-10-17T02:35:33;11.70;99.90
12276;DHT22;6200;48.144;11.424;2022-10-17T02:38:00;11.70;99.90
12276;DHT22;6200;48.144;11.424;2022-10-17T02:40:28;11.70;99.90
12276;DHT22;6200;48.144;11.424;2022-10-17T02:42:55;11.70;99.90
12276;DHT22;6200;48.144;11.424;2022-10-17T02:45:24;11.60;99.90
12276;DHT22;6200;48.144;11.424;2022-10-17T02:47:58;11.70;99.90
12276;DHT22;6200;48.144;11.424;2022-10-17T02:51:17;11.70;99.90
12276;DHT22;6200;48.144;11.424;2022-10-17T02:53:29;11.70;99.90
12276;DHT22;6200;48.144;11.424;2022-10-17T02:55:59;11.70;99.90
12276;DHT22;6200;48.144;11.424;2022-10-17T02:58:30;11.70;99.90
12276;DHT22;6200;48.144;11.424;2022-10-17T03:00:57;11.60;99.90
12276;DHT22;6200;48.144;11.424;2022-10-17T03:03:26;11.60;99.90
12276;DHT22;6200;48.144;11.424;2022-10-17T03:05:52;11.60;99.90
12276;DHT22;6200;48.144;11.424;2022-10-17T03:08:18;11.60;99.90
12276;DHT22;6200;48.144;11.424;2022-10-17T03:10:44;11.60;99.90
12276;DHT22;6200;48.144;11.424;2022-10-17T03:13:10;11.60;99.90
12276;DHT22;6200;48.144;11.424;2022-10-17T03:15:35;11.60;99.90
12276;DHT22;6200;48.144;11.424;2022-10-17T03:18:01;11.50;99.90
12276;DHT22;6200;48.144;11.424;2022-10-17T03:20:26;11.50;99.90
12276;DHT22;6200;48.144;11.424;2022-10-17T03:22:52;11.50;99.90
12276;DHT22;6200;48.144;11.424;2022-10-17T03:25:17;11.50;99.90
12276;DHT22;6200;48.144;11.424;2022-10-17T03:27:43;11.50;99.90
12276;DHT22;6200;48.144;11.424;2022-10-17T03:30:09;11.50;99.90
12276;DHT22;6200;48.144;11.424;2022-10-17T03:32:35;11.40;99.90
12276;DHT22;6200;48.144;11.424;2022-10-17T03:35:00;11.40;99.90
12276;DHT22;6200;48.144;11.424;2022-10-17T03:37:26;11.50;99.90
12276;DHT22;6200;48.144;11.424;2022-10-17T03:39:52;11.40;99.90
12276;DHT22;6200;48.144;11.424;2022-10-17T03:42:17;11.30;99.90
12276;DHT22;6200;48.144;11.424;2022-10-17T03:44:43;11.30;99.90
12276;DHT22;6200;48.144;11.424;2022-10-17T03:47:08;11.30;99.90
12276;DHT22;6200;48.144;11.424;2022-10-17T03:49:34;11.30;99.90
12276;DHT22;6200;48.144;11.424;2022-10-17T03:51:59;11.30;99.90
12276;DHT22;6200;48.144;11.424;2022-10-17T03:54:25;11.20;99.90
12276;DHT22;6200;48.144;11.424;2022-10-17T03:56:50;11.20;99.90
12276;DHT22;6200;48.144;11.424;2022-10-17T03:59:16;11.10;99.90
12276;DHT22;6200;48.144;11.424;2022-10-17T04:01:42;11.10;99.90
12276;DHT22;6200;48.144;11.424;2022-10-17T04:04:08;11.10;99.90
12276;DHT22;6200;48.144;11.424;2022-10-17T04:06:34;11.00;99.90
12276;DHT22;6200;48.144;11.424;2022-10-17T04:08:59;11.00;99.90
12276;DHT22;6200;48.144;11.424;2022-10-17T04:11:25;11.00;99.90
12276;DHT22;6200;48.144;11.424;2022-10-17T04:13:55;11.00;99.90
12276;DHT22;6200;48.144;11.424;2022-10-17T04:16:21;11.00;99.90
12276;DHT22;6200;48.144;11.424;2022-10-17T04:18:52;11.00;99.90
12276;DHT22;6200;48.144;11.424;2022-10-17T04:21:18;11.00;99.90
12276;DHT22;6200;48.144;11.424;2022-10-17T04:23:44;11.00;99.90
12276;DHT22;6200;48.144;11.424;2022-10-17T04:26:09;11.00;99.90
12276;DHT22;6200;48.144;11.424;2022-10-17T04:28:36;11.00;99.90
12276;DHT22;6200;48.144;11.424;2022-10-17T04:31:06;11.00;99.90
12276;DHT22;6200;48.144;11.424;2022-10-17T04:33:32;10.90;99.90
12276;DHT22;6200;48.144;11.424;2022-10-17T04:36:20;10.90;99.90
12276;DHT22;6200;48.144;11.424;2022-10-17T04:38:45;10.90;99.90
12276;DHT22;6200;48.144;11.424;2022-10-17T04:41:12;10.80;99.90
12276;DHT22;6200;48.144;11.424;2022-10-17T04:43:38;10.80;99.90
12276;DHT22;6200;48.144;11.424;2022-10-17T04:46:10;10.80;99.90
12276;DHT22;6200;48.144;11.424;2022-10-17T04:48:37;10.90;99.90
12276;DHT22;6200;48.144;11.424;2022-10-17T04:51:05;10.90;99.90
12276;DHT22;6200;48.144;11.424;2022-10-17T04:53:33;10.90;99.90
12276;DHT22;6200;48.144;11.424;2022-10-17T04:55:58;10.90;99.90
12276;DHT22;6200;48.144;11.424;2022-10-17T04:58:24;10.80;99.90
12276;DHT22;6200;48.144;11.424;2022-10-17T05:00:50;10.80;99.90
12276;DHT22;6200;48.144;11.424;2022-10-17T05:03:15;10.80;99.90
12276;DHT22;6200;48.144;11.424;2022-10-17T05:05:41;10.80;99.90
12276;DHT22;6200;48.144;11.424;2022-10-17T05:08:09;10.70;99.90
12276;DHT22;6200;48.144;11.424;2022-10-17T05:10:39;10.70;99.90
12276;DHT22;6200;48.144;11.424;2022-10-17T05:13:06;10.70;99.90
12276;DHT22;6200;48.144;11.424;2022-10-17T05:15:33;10.60;99.90
12276;DHT22;6200;48.144;11.424;2022-10-17T05:17:59;10.60;99.90
12276;DHT22;6200;48.144;11.424;2022-10-17T05:20:25;10.60;99.90
12276;DHT22;6200;48.144;11.424;2022-10-17T05:22:51;10.60;99.90
12276;DHT22;6200;48.144;11.424;2022-10-17T05:25:16;10.70;99.90
12276;DHT22;6200;48.144;11.424;2022-10-17T05:27:42;10.70;99.90
12276;DHT22;6200;48.144;11.424;2022-10-17T05:30:08;10.70;99.90
12276;DHT22;6200;48.144;11.424;2022-10-17T05:32:34;10.70;99.90
12276;DHT22;6200;48.144;11.424;2022-10-17T05:34:59;10.70;99.90
12276;DHT22;6200;48.144;11.424;2022-10-17T05:37:25;10.70;99.90
12276;DHT22;6200;48.144;11.424;2022-10-17T05:39:53;10.70;99.90
12276;DHT22;6200;48.144;11.424;2022-10-17T05:42:18;10.70;99.90
12276;DHT22;6200;48.144;11.424;2022-10-17T05:44:44;10.70;99.90
12276;DHT22;6200;48.144;11.424;2022-10-17T05:47:09;10.80;99.90
12276;DHT22;6200;48.144;11.424;2022-10-17T05:49:35;10.80;99.90
12276;DHT22;6200;48.144;11.424;2022-10-17T05:52:00;10.80;99.90
12276;DHT22;6200;48.144;11.424;2022-10-17T05:54:26;10.80;99.90
12276;DHT22;6200;48.144;11.424;2022-10-17T05:56:53;10.80;99.90
12276;DHT22;6200;48.144;11.424;2022-10-17T05:59:18;10.80;99.90
12276;DHT22;6200;48.144;11.424;2022-10-17T06:01:44;10.80;99.90
12276;DHT22;6200;48.144;11.424;2022-10-17T06:04:09;10.70;99.90
12276;DHT22;6200;48.144;11.424;2022-10-17T06:06:36;10.70;99.90
12276;DHT22;6200;48.144;11.424;2022-10-17T06:09:02;10.70;99.90
12276;DHT22;6200;48.144;11.424;2022-10-17T06:11:28;10.80;99.90
12276;DHT22;6200;48.144;11.424;2022-10-17T06:13:53;10.70;99.90
12276;DHT22;6200;48.144;11.424;2022-10-17T06:16:19;10.70;99.90
12276;DHT22;6200;48.144;11.424;2022-10-17T06:18:44;10.70;99.90
12276;DHT22;6200;48.144;11.424;2022-10-17T06:21:11;10.80;99.90
12276;DHT22;6200;48.144;11.424;2022-10-17T06:23:39;10.80;99.90
12276;DHT22;6200;48.144;11.424;2022-10-17T06:26:05;10.80;99.90
12276;DHT22;6200;48.144;11.424;2022-10-17T06:28:32;10.70;99.90
12276;DHT22;6200;48.144;11.424;2022-10-17T06:30:57;10.80;99.90
12276;DHT22;6200;48.144;11.424;2022-10-17T06:33:23;10.80;99.90
12276;DHT22;6200;48.144;11.424;2022-10-17T06:35:55;10.80;99.90
12276;DHT22;6200;48.144;11.424;2022-10-17T06:38:21;10.90;99.90
12276;DHT22;6200;48.144;11.424;2022-10-17T06:40:47;10.90;99.90
12276;DHT22;6200;48.144;11.424;2022-10-17T06:43:13;11.00;99.90
12276;DHT22;6200;48.144;11.424;2022-10-17T06:45:39;11.00;99.90
12276;DHT22;6200;48.144;11.424;2022-10-17T06:48:05;11.10;99.90
12276;DHT22;6200;48.144;11.424;2022-10-17T06:50:31;11.10;99.90
12276;DHT22;6200;48.144;11.424;2022-10-17T06:52:56;11.10;99.90
12276;DHT22;6200;48.144;11.424;2022-10-17T06:55:22;11.20;99.90
12276;DHT22;6200;48.144;11.424;2022-10-17T06:57:48;11.20;99.90
12276;DHT22;6200;48.144;11.424;2022-10-17T07:00:13;11.30;99.90
12276;DHT22;6200;48.144;11.424;2022-10-17T07:02:39;11.30;99.90
12276;DHT22;6200;48.144;11.424;2022-10-17T07:05:06;11.30;99.90
12276;DHT22;6200;48.144;11.424;2022-10-17T07:07:32;11.30;99.90
12276;DHT22;6200;48.144;11.424;2022-10-17T07:09:58;11.30;99.90
12276;DHT22;6200;48.144;11.424;2022-10-17T07:12:24;11.40;99.90
12276;DHT22;6200;48.144;11.424;2022-10-17T07:14:49;11.50;99.90
12276;DHT22;6200;48.144;11.424;2022-10-17T07:17:16;11.60;99.90
12276;DHT22;6200;48.144;11.424;2022-10-17T07:19:42;11.60;99.90
12276;DHT22;6200;48.144;11.424;2022-10-17T07:22:11;11.80;99.90
12276;DHT22;6200;48.144;11.424;2022-10-17T07:24:37;11.90;99.90
12276;DHT22;6200;48.144;11.424;2022-10-17T07:27:03;12.00;99.90
12276;DHT22;6200;48.144;11.424;2022-10-17T07:29:28;12.10;99.90
12276;DHT22;6200;48.144;11.424;2022-10-17T07:31:54;12.20;99.90
12276;DHT22;6200;48.144;11.424;2022-10-17T07:34:19;12.30;99.90
12276;DHT22;6200;48.144;11.424;2022-10-17T07:36:45;12.50;99.90
12276;DHT22;6200;48.144;11.424;2022-10-17T07:39:11;12.70;99.90
12276;DHT22;6200;48.144;11.424;2022-10-17T07:41:36;12.80;99.90
12276;DHT22;6200;48.144;11.424;2022-10-17T07:44:02;13.00;99.90
12276;DHT22;6200;48.144;11.424;2022-10-17T07:46:28;13.20;99.90
12276;DHT22;6200;48.144;11.424;2022-10-17T07:48:53;13.40;99.90
12276;DHT22;6200;48.144;11.424;2022-10-17T07:51:19;13.60;99.90
12276;DHT22;6200;48.144;11.424;2022-10-17T07:53:46;13.80;99.90
12276;DHT22;6200;48.144;11.424;2022-10-17T07:56:12;13.90;99.90
12276;DHT22;6200;48.144;11.424;2022-10-17T07:58:38;14.10;99.90
12276;DHT22;6200;48.144;11.424;2022-10-17T08:01:06;14.30;99.90
12276;DHT22;6200;48.144;11.424;2022-10-17T08:03:31;14.40;99.90
12276;DHT22;6200;48.144;11.424;2022-10-17T08:05:59;14.60;99.90
12276;DHT22;6200;48.144;11.424;2022-10-17T08:08:25;14.80;99.90
12276;DHT22;6200;48.144;11.424;2022-10-17T08:10:51;15.00;99.90
12276;DHT22;6200;48.144;11.424;2022-10-17T08:13:17;15.20;99.90
12276;DHT22;6200;48.144;11.424;2022-10-17T08:15:42;15.50;99.90
12276;DHT22;6200;48.144;11.424;2022-10-17T08:18:08;15.80;99.90
12276;DHT22;6200;48.144;11.424;2022-10-17T08:20:33;16.00;99.90
12276;DHT22;6200;48.144;11.424;2022-10-17T08:22:59;16.40;99.90
12276;DHT22;6200;48.144;11.424;2022-10-17T08:25:24;16.60;99.90
12276;DHT22;6200;48.144;11.424;2022-10-17T08:27:50;16.90;99.90
12276;DHT22;6200;48.144;11.424;2022-10-17T08:30:16;17.20;99.90
12276;DHT22;6200;48.144;11.424;2022-10-17T08:32:42;17.40;99.90
12276;DHT22;6200;48.144;11.424;2022-10-17T08:35:08;17.60;99.90
12276;DHT22;6200;48.144;11.424;2022-10-17T08:37:33;18.00;99.90
12276;DHT22;6200;48.144;11.424;2022-10-17T08:39:59;18.10;99.90
12276;DHT22;6200;48.144;11.424;2022-10-17T08:45:04;18.40;99.90
12276;DHT22;6200;48.144;11.424;2022-10-17T08:47:39;18.60;99.90
12276;DHT22;6200;48.144;11.424;2022-10-17T08:50:33;18.60;99.90
12276;DHT22;6200;48.144;11.424;2022-10-17T08:56:04;19.00;99.90
12276;DHT22;6200;48.144;11.424;2022-10-17T08:58:33;19.20;99.90
12276;DHT22;6200;48.144;11.424;2022-10-17T09:04:02;19.50;99.90
12276;DHT22;6200;48.144;11.424;2022-10-17T09:06:38;19.70;99.90
12276;DHT22;6200;48.144;11.424;2022-10-17T09:11:59;19.70;99.90
12276;DHT22;6200;48.144;11.424;2022-10-17T09:14:59;19.70;99.90
12276;DHT22;6200;48.144;11.424;2022-10-17T09:20:21;20.00;99.90
12276;DHT22;6200;48.144;11.424;2022-10-17T09:23:04;20.10;99.90
12276;DHT22;6200;48.144;11.424;2022-10-17T09:25:41;20.20;99.90
12276;DHT22;6200;48.144;11.424;2022-10-17T09:28:35;20.20;99.90
12276;DHT22;6200;48.144;11.424;2022-10-17T09:36:08;20.60;99.90
12276;DHT22;6200;48.144;11.424;2022-10-17T09:38:55;20.60;99.90
12276;DHT22;6200;48.144;11.424;2022-10-17T09:43:57;22.00;99.90
12276;DHT22;6200;48.144;11.424;2022-10-17T09:46:33;21.00;99.90
12276;DHT22;6200;48.144;11.424;2022-10-17T09:49:11;21.20;99.90
12276;DHT22;6200;48.144;11.424;2022-10-17T09:51:38;21.20;99.90
12276;DHT22;6200;48.144;11.424;2022-10-17T09:54:20;21.10;99.90
12276;DHT22;6200;48.144;11.424;2022-10-17T09:56:59;21.30;99.90
12276;DHT22;6200;48.144;11.424;2022-10-17T09:59:30;21.40;99.60
12276;DHT22;6200;48.144;11.424;2022-10-17T10:04:51;21.60;99.00
12276;DHT22;6200;48.144;11.424;2022-10-17T10:07:17;21.70;99.10
12276;DHT22;6200;48.144;11.424;2022-10-17T10:09:46;21.80;99.50
12276;DHT22;6200;48.144;11.424;2022-10-17T10:12:19;21.90;99.90
12276;DHT22;6200;48.144;11.424;2022-10-17T10:14:46;22.10;98.90
12276;DHT22;6200;48.144;11.424;2022-10-17T10:17:35;22.10;97.40
12276;DHT22;6200;48.144;11.424;2022-10-17T10:20:03;22.50;96.70
12276;DHT22;6200;48.144;11.424;2022-10-17T10:23:11;22.70;96.40
12276;DHT22;6200;48.144;11.424;2022-10-17T10:25:37;22.80;94.00
12276;DHT22;6200;48.144;11.424;2022-10-17T10:28:15;23.00;95.40
12276;DHT22;6200;48.144;11.424;2022-10-17T10:30:46;23.10;96.10
12276;DHT22;6200;48.144;11.424;2022-10-17T10:33:12;23.20;94.90
12276;DHT22;6200;48.144;11.424;2022-10-17T10:35:38;23.30;94.50
12276;DHT22;6200;48.144;11.424;2022-10-17T10:38:09;23.30;95.40
12276;DHT22;6200;48.144;11.424;2022-10-17T10:43:25;23.70;92.80
12276;DHT22;6200;48.144;11.424;2022-10-17T10:45:54;23.90;93.80
12276;DHT22;6200;48.144;11.424;2022-10-17T10:48:22;24.00;94.20
12276;DHT22;6200;48.144;11.424;2022-10-17T10:50:55;23.90;92.20
12276;DHT22;6200;48.144;11.424;2022-10-17T10:53:49;24.20;91.20
12276;DHT22;6200;48.144;11.424;2022-10-17T10:56:26;24.40;91.70
12276;DHT22;6200;48.144;11.424;2022-10-17T10:58:57;24.30;91.60
12276;DHT22;6200;48.144;11.424;2022-10-17T11:01:38;24.40;89.80
12276;DHT22;6200;48.144;11.424;2022-10-17T11:06:52;24.60;90.50
12276;DHT22;6200;48.144;11.424;2022-10-17T11:09:33;24.70;90.30
12276;DHT22;6200;48.144;11.424;2022-10-17T11:17:44;25.00;87.90
12276;DHT22;6200;48.144;11.424;2022-10-17T11:20:32;25.00;90.00
12276;DHT22;6200;48.144;11.424;2022-10-17T11:25:51;25.00;87.30
12276;DHT22;6200;48.144;11.424;2022-10-17T11:28:20;25.10;84.70
12276;DHT22;6200;48.144;11.424;2022-10-17T11:33:21;25.20;88.70
12276;DHT22;6200;48.144;11.424;2022-10-17T11:35:51;25.50;83.30
12276;DHT22;6200;48.144;11.424;2022-10-17T11:38:37;25.40;84.60
12276;DHT22;6200;48.144;11.424;2022-10-17T11:41:05;25.40;83.60
12276;DHT22;6200;48.144;11.424;2022-10-17T11:43:39;25.50;82.10
12276;DHT22;6200;48.144;11.424;2022-10-17T11:46:18;25.30;84.20
12276;DHT22;6200;48.144;11.424;2022-10-17T11:51:17;25.30;83.40
12276;DHT22;6200;48.144;11.424;2022-10-17T11:56:11;25.20;80.80
12276;DHT22;6200;48.144;11.424;2022-10-17T11:58:54;25.40;81.90
12276;DHT22;6200;48.144;11.424;2022-10-17T12:01:49;25.20;81.30
12276;DHT22;6200;48.144;11.424;2022-10-17T12:07:09;25.20;80.40
12276;DHT22;6200;48.144;11.424;2022-10-17T12:09:59;25.30;83.30
12276;DHT22;6200;48.144;11.424;2022-10-17T12:12:32;25.30;84.50
12276;DHT22;6200;48.144;11.424;2022-10-17T12:17:58;25.50;80.80
12276;DHT22;6200;48.144;11.424;2022-10-17T12:20:32;25.70;82.70
12276;DHT22;6200;48.144;11.424;2022-10-17T12:23:16;25.70;83.10
12276;DHT22;6200;48.144;11.424;2022-10-17T12:25:52;25.50;87.00
12276;DHT22;6200;48.144;11.424;2022-10-17T12:30:53;25.60;81.80
12276;DHT22;6200;48.144;11.424;2022-10-17T12:33:22;25.70;77.70
12276;DHT22;6200;48.144;11.424;2022-10-17T12:55:17;25.40;76.40
12276;DHT22;6200;48.144;11.424;2022-10-17T13:00:42;25.40;79.10
12276;DHT22;6200;48.144;11.424;2022-10-17T13:03:17;25.40;79.70
12276;DHT22;6200;48.144;11.424;2022-10-17T13:05:50;25.40;80.30
12276;DHT22;6200;48.144;11.424;2022-10-17T13:08:32;25.40;79.90
12276;DHT22;6200;48.144;11.424;2022-10-17T13:10:58;25.40;79.10
12276;DHT22;6200;48.144;11.424;2022-10-17T13:13:41;25.20;79.50
12276;DHT22;6200;48.144;11.424;2022-10-17T13:16:07;25.40;79.70
12276;DHT22;6200;48.144;11.424;2022-10-17T13:18:33;25.30;78.50
12276;DHT22;6200;48.144;11.424;2022-10-17T13:21:00;25.20;80.90
12276;DHT22;6200;48.144;11.424;2022-10-17T13:23:33;25.20;81.60
12276;DHT22;6200;48.144;11.424;2022-10-17T13:28:34;25.00;80.00
12276;DHT22;6200;48.144;11.424;2022-10-17T13:31:00;25.00;81.30
12276;DHT22;6200;48.144;11.424;2022-10-17T13:35:59;24.80;80.90
12276;DHT22;6200;48.144;11.424;2022-10-17T13:38:30;24.80;79.50
12276;DHT22;6200;48.144;11.424;2022-10-17T13:40:57;24.80;79.10
12276;DHT22;6200;48.144;11.424;2022-10-17T13:43:23;24.80;79.70
12276;DHT22;6200;48.144;11.424;2022-10-17T13:45:51;24.70;82.00
12276;DHT22;6200;48.144;11.424;2022-10-17T13:48:24;24.60;82.90
12276;DHT22;6200;48.144;11.424;2022-10-17T13:50:55;24.60;85.10
12276;DHT22;6200;48.144;11.424;2022-10-17T13:53:28;24.50;82.60
12276;DHT22;6200;48.144;11.424;2022-10-17T13:56:03;24.50;84.90
12276;DHT22;6200;48.144;11.424;2022-10-17T13:58:59;24.50;83.30
12276;DHT22;6200;48.144;11.424;2022-10-17T14:01:27;24.40;83.30
12276;DHT22;6200;48.144;11.424;2022-10-17T14:03:53;24.50;82.60
12276;DHT22;6200;48.144;11.424;2022-10-17T14:09:06;24.40;80.70
12276;DHT22;6200;48.144;11.424;2022-10-17T14:11:42;24.40;83.00
12276;DHT22;6200;48.144;11.424;2022-10-17T14:14:23;24.30;84.00
12276;DHT22;6200;48.144;11.424;2022-10-17T14:16:51;24.30;84.60
12276;DHT22;6200;48.144;11.424;2022-10-17T14:19:26;24.20;83.50
12276;DHT22;6200;48.144;11.424;2022-10-17T14:21:54;24.10;84.10
12276;DHT22;6200;48.144;11.424;2022-10-17T14:26:54;24.10;85.40
12276;DHT22;6200;48.144;11.424;2022-10-17T14:29:29;24.00;85.80
12276;DHT22;6200;48.144;11.424;2022-10-17T14:32:06;24.00;86.50
12276;DHT22;6200;48.144;11.424;2022-10-17T14:34:37;23.90;86.20
12276;DHT22;6200;48.144;11.424;2022-10-17T14:39:52;23.80;87.50
12276;DHT22;6200;48.144;11.424;2022-10-17T14:42:20;23.80;86.50
12276;DHT22;6200;48.144;11.424;2022-10-17T14:44:51;23.70;89.50
12276;DHT22;6200;48.144;11.424;2022-10-17T14:47:20;23.60;89.20
12276;DHT22;6200;48.144;11.424;2022-10-17T14:49:50;23.60;88.10
12276;DHT22;6200;48.144;11.424;2022-10-17T14:54:42;23.40;88.90
12276;DHT22;6200;48.144;11.424;2022-10-17T14:59:48;23.20;90.00
12276;DHT22;6200;48.144;11.424;2022-10-17T15:02:14;23.10;89.30
12276;DHT22;6200;48.144;11.424;2022-10-17T15:04:40;23.00;89.10
12276;DHT22;6200;48.144;11.424;2022-10-17T15:07:05;22.90;89.30
12276;DHT22;6200;48.144;11.424;2022-10-17T15:09:31;22.80;89.00
12276;DHT22;6200;48.144;11.424;2022-10-17T15:12:09;22.80;89.90
12276;DHT22;6200;48.144;11.424;2022-10-17T15:14:36;22.70;89.10
12276;DHT22;6200;48.144;11.424;2022-10-17T15:17:01;22.50;90.80
12276;DHT22;6200;48.144;11.424;2022-10-17T15:19:27;22.40;90.20
12276;DHT22;6200;48.144;11.424;2022-10-17T15:21:52;22.30;90.90
12276;DHT22;6200;48.144;11.424;2022-10-17T15:24:18;22.20;91.10
12276;DHT22;6200;48.144;11.424;2022-10-17T15:26:43;22.10;91.50
12276;DHT22;6200;48.144;11.424;2022-10-17T15:29:14;22.00;92.00
12276;DHT22;6200;48.144;11.424;2022-10-17T15:31:40;21.90;92.40
12276;DHT22;6200;48.144;11.424;2022-10-17T15:34:06;21.80;92.30
12276;DHT22;6200;48.144;11.424;2022-10-17T15:36:37;21.70;92.30
12276;DHT22;6200;48.144;11.424;2022-10-17T15:39:03;21.60;92.80
12276;DHT22;6200;48.144;11.424;2022-10-17T15:41:30;21.50;92.80
12276;DHT22;6200;48.144;11.424;2022-10-17T15:43:56;21.30;92.90
12276;DHT22;6200;48.144;11.424;2022-10-17T15:46:24;21.20;93.10
12276;DHT22;6200;48.144;11.424;2022-10-17T15:48:52;21.20;93.50
12276;DHT22;6200;48.144;11.424;2022-10-17T15:51:17;21.10;93.20
12276;DHT22;6200;48.144;11.424;2022-10-17T15:53:43;21.00;93.50
12276;DHT22;6200;48.144;11.424;2022-10-17T15:56:20;20.90;93.90
12276;DHT22;6200;48.144;11.424;2022-10-17T15:58:46;20.80;94.40
12276;DHT22;6200;48.144;11.424;2022-10-17T16:01:25;20.80;94.30
12276;DHT22;6200;48.144;11.424;2022-10-17T16:03:51;20.70;94.10
12276;DHT22;6200;48.144;11.424;2022-10-17T16:06:18;20.60;94.50
12276;DHT22;6200;48.144;11.424;2022-10-17T16:08:45;20.50;95.00
12276;DHT22;6200;48.144;11.424;2022-10-17T16:11:34;20.40;95.40
12276;DHT22;6200;48.144;11.424;2022-10-17T16:14:02;20.20;96.20
12276;DHT22;6200;48.144;11.424;2022-10-17T16:16:28;20.20;96.50
12276;DHT22;6200;48.144;11.424;2022-10-17T16:18:54;20.10;96.70
12276;DHT22;6200;48.144;11.424;2022-10-17T16:21:23;20.00;97.60
12276;DHT22;6200;48.144;11.424;2022-10-17T16:23:50;19.90;97.60
12276;DHT22;6200;48.144;11.424;2022-10-17T16:26:15;19.80;98.20
12276;DHT22;6200;48.144;11.424;2022-10-17T16:28:44;19.70;98.80
12276;DHT22;6200;48.144;11.424;2022-10-17T16:31:18;19.50;98.40
12276;DHT22;6200;48.144;11.424;2022-10-17T16:33:44;19.40;99.00
12276;DHT22;6200;48.144;11.424;2022-10-17T16:36:10;19.30;99.30
12276;DHT22;6200;48.144;11.424;2022-10-17T16:38:35;19.20;99.90
12276;DHT22;6200;48.144;11.424;2022-10-17T16:41:01;19.10;99.90
12276;DHT22;6200;48.144;11.424;2022-10-17T16:43:26;19.00;99.90
12276;DHT22;6200;48.144;11.424;2022-10-17T16:45:54;18.90;99.90
12276;DHT22;6200;48.144;11.424;2022-10-17T16:48:19;18.90;99.90
12276;DHT22;6200;48.144;11.424;2022-10-17T16:50:45;18.80;99.90
12276;DHT22;6200;48.144;11.424;2022-10-17T16:53:10;18.70;99.90
12276;DHT22;6200;48.144;11.424;2022-10-17T16:55:36;18.60;99.90
12276;DHT22;6200;48.144;11.424;2022-10-17T16:58:01;18.50;99.90
12276;DHT22;6200;48.144;11.424;2022-10-17T17:00:27;18.40;99.90
12276;DHT22;6200;48.144;11.424;2022-10-17T17:02:54;18.30;99.90
12276;DHT22;6200;48.144;11.424;2022-10-17T17:05:19;18.20;99.90
12276;DHT22;6200;48.144;11.424;2022-10-17T17:07:45;18.10;99.90
12276;DHT22;6200;48.144;11.424;2022-10-17T17:10:12;18.00;99.90
12276;DHT22;6200;48.144;11.424;2022-10-17T17:12:37;17.90;99.90
12276;DHT22;6200;48.144;11.424;2022-10-17T17:15:04;17.90;99.90
12276;DHT22;6200;48.144;11.424;2022-10-17T17:17:30;17.70;99.90
12276;DHT22;6200;48.144;11.424;2022-10-17T17:19:55;17.60;99.90
12276;DHT22;6200;48.144;11.424;2022-10-17T17:22:21;17.50;99.90
12276;DHT22;6200;48.144;11.424;2022-10-17T17:24:47;17.50;99.90
12276;DHT22;6200;48.144;11.424;2022-10-17T17:27:12;17.40;99.90
12276;DHT22;6200;48.144;11.424;2022-10-17T17:29:38;17.40;99.90
12276;DHT22;6200;48.144;11.424;2022-10-17T17:32:03;17.30;99.90
12276;DHT22;6200;48.144;11.424;2022-10-17T17:34:29;17.20;99.90
12276;DHT22;6200;48.144;11.424;2022-10-17T17:36:56;17.10;99.90
12276;DHT22;6200;48.144;11.424;2022-10-17T17:39:21;17.00;99.90
12276;DHT22;6200;48.144;11.424;2022-10-17T17:41:47;17.00;99.90
12276;DHT22;6200;48.144;11.424;2022-10-17T17:44:13;16.90;99.90
12276;DHT22;6200;48.144;11.424;2022-10-17T17:46:39;16.80;99.90